createdAt,value
2018-09-04T00:00:00.253Z,16.52
2018-09-04T00:02:29.527Z,16.51
2018-09-04T00:04:58.664Z,16.52
2018-09-04T00:07:27.785Z,16.50
2018-09-04T00:09:56.940Z,16.51
2018-09-04T00:12:26.137Z,16.46
2018-09-04T00:14:55.249Z,16.47
2018-09-04T00:17:24.412Z,16.50
2018-09-04T00:19:53.625Z,16.49
2018-09-04T00:22:22.736Z,16.43
2018-09-04T00:24:51.923Z,16.37
2018-09-04T00:27:21.114Z,16.37
2018-09-04T00:29:50.204Z,16.29
2018-09-04T00:32:19.356Z,16.28
2018-09-04T00:34:48.499Z,16.27
2018-09-04T00:37:17.682Z,16.25
2018-09-04T00:39:47.130Z,16.22
2018-09-04T00:42:16.316Z,16.19
2018-09-04T00:44:45.578Z,16.18
2018-09-04T00:47:14.700Z,16.18
2018-09-04T00:49:43.840Z,16.12
2018-09-04T00:52:13.142Z,16.16
2018-09-04T00:54:42.219Z,16.21
2018-09-04T00:57:11.386Z,16.16
2018-09-04T00:59:40.534Z,16.16
2018-09-04T01:02:09.927Z,16.11
2018-09-04T01:04:39.161Z,16.10
2018-09-04T01:07:08.279Z,16.14
2018-09-04T01:09:37.512Z,16.07
2018-09-04T01:12:06.661Z,16.01
2018-09-04T01:14:35.873Z,15.96
2018-09-04T01:17:05.285Z,16.05
2018-09-04T01:19:34.453Z,16.05
2018-09-04T01:22:03.681Z,16.06
2018-09-04T01:24:32.824Z,15.98
2018-09-04T01:27:02.077Z,15.96
2018-09-04T01:29:31.209Z,15.92
2018-09-04T01:32:00.363Z,15.87
2018-09-04T01:34:29.485Z,15.90
2018-09-04T01:36:58.604Z,15.87
2018-09-04T01:39:27.712Z,15.86
2018-09-04T01:41:56.893Z,15.84
2018-09-04T01:44:26.049Z,15.78
2018-09-04T01:46:55.245Z,15.74
2018-09-04T01:49:24.376Z,15.71
2018-09-04T01:51:53.548Z,15.72
2018-09-04T01:54:22.672Z,15.70
2018-09-04T01:56:51.900Z,15.70
2018-09-04T01:59:20.988Z,15.72
2018-09-04T02:01:50.208Z,15.65
2018-09-04T02:04:19.389Z,15.68
2018-09-04T02:06:48.520Z,15.65
2018-09-04T02:09:17.704Z,15.75
2018-09-04T02:11:46.899Z,15.76
2018-09-04T02:14:16.210Z,15.69
2018-09-04T02:16:45.441Z,15.70
2018-09-04T02:19:14.557Z,15.59
2018-09-04T02:21:43.794Z,15.57
2018-09-04T02:24:13.090Z,15.56
2018-09-04T02:26:42.292Z,15.48
2018-09-04T02:29:11.469Z,15.42
2018-09-04T02:31:40.570Z,15.43
2018-09-04T02:34:09.784Z,15.42
2018-09-04T02:36:38.981Z,15.42
2018-09-04T02:39:09.674Z,15.39
2018-09-04T02:41:38.863Z,15.41
2018-09-04T02:44:08.044Z,15.45
2018-09-04T02:46:37.451Z,15.36
2018-09-04T02:49:07.000Z,15.37
2018-09-04T02:51:36.576Z,15.32
2018-09-04T02:54:06.043Z,15.34
2018-09-04T02:56:35.158Z,15.37
2018-09-04T02:59:04.346Z,15.38
2018-09-04T03:01:33.568Z,15.43
2018-09-04T03:04:02.773Z,15.30
2018-09-04T03:06:31.910Z,15.28
2018-09-04T03:09:01.043Z,15.33
2018-09-04T03:11:30.213Z,15.38
2018-09-04T03:13:59.404Z,15.45
2018-09-04T03:16:28.485Z,15.33
2018-09-04T03:18:57.605Z,15.34
2018-09-04T03:21:26.748Z,15.37
2018-09-04T03:23:55.956Z,15.30
2018-09-04T03:26:25.141Z,15.28
2018-09-04T03:28:54.268Z,15.23
2018-09-04T03:31:23.457Z,15.25
2018-09-04T03:33:52.586Z,15.28
2018-09-04T03:36:21.792Z,15.25
2018-09-04T03:38:50.900Z,15.22
2018-09-04T03:41:20.028Z,15.16
2018-09-04T03:43:49.126Z,15.24
2018-09-04T03:46:18.275Z,15.17
2018-09-04T03:48:47.449Z,15.20
2018-09-04T03:51:16.576Z,15.17
2018-09-04T03:53:45.752Z,15.11
2018-09-04T03:56:14.857Z,15.13
2018-09-04T03:58:44.003Z,15.09
2018-09-04T04:01:13.159Z,15.11
2018-09-04T04:03:42.424Z,15.15
2018-09-04T04:06:11.548Z,15.19
2018-09-04T04:08:40.687Z,15.15
2018-09-04T04:11:10.031Z,15.10
2018-09-04T04:13:39.220Z,15.09
2018-09-04T04:16:08.413Z,15.07
2018-09-04T04:18:37.723Z,15.05
2018-09-04T04:21:06.887Z,15.09
2018-09-04T04:23:36.059Z,15.07
2018-09-04T04:26:05.210Z,15.01
2018-09-04T04:28:34.331Z,14.98
2018-09-04T04:31:03.537Z,14.96
2018-09-04T04:33:32.709Z,14.92
2018-09-04T04:36:01.833Z,14.99
2018-09-04T04:38:31.079Z,14.92
2018-09-04T04:41:00.240Z,14.93
2018-09-04T04:43:29.400Z,14.98
2018-09-04T04:45:58.537Z,14.85
2018-09-04T04:48:27.697Z,14.88
2018-09-04T04:50:56.864Z,14.82
2018-09-04T04:53:26.025Z,14.80
2018-09-04T04:55:55.165Z,14.85
2018-09-04T04:58:24.488Z,14.86
2018-09-04T05:00:53.672Z,14.87
2018-09-04T05:03:22.789Z,14.87
2018-09-04T05:05:51.970Z,14.80
2018-09-04T05:08:21.080Z,14.79
2018-09-04T05:10:50.200Z,14.78
2018-09-04T05:13:19.472Z,14.71
2018-09-04T05:15:48.741Z,14.70
2018-09-04T05:18:17.987Z,14.77
2018-09-04T05:20:47.140Z,14.75
2018-09-04T05:23:16.529Z,14.83
2018-09-04T05:25:45.761Z,14.78
2018-09-04T05:28:14.888Z,14.75
2018-09-04T05:30:44.099Z,14.73
2018-09-04T05:33:15.652Z,14.76
2018-09-04T05:35:53.164Z,14.77
2018-09-04T05:38:22.901Z,14.76
2018-09-04T05:40:52.119Z,14.74
2018-09-04T05:43:27.851Z,14.71
2018-09-04T05:45:59.009Z,14.70
2018-09-04T05:48:28.188Z,14.67
2018-09-04T05:50:57.384Z,14.72
2018-09-04T05:53:26.535Z,14.75
2018-09-04T05:55:55.894Z,14.81
2018-09-04T05:58:25.226Z,14.78
2018-09-04T06:00:57.942Z,14.72
2018-09-04T06:03:28.070Z,14.81
2018-09-04T06:05:57.311Z,14.85
2018-09-04T06:08:26.572Z,14.70
2018-09-04T06:10:55.692Z,14.75
2018-09-04T06:13:24.908Z,14.75
2018-09-04T06:15:54.275Z,14.74
2018-09-04T06:18:23.474Z,14.78
2018-09-04T06:20:52.596Z,14.75
2018-09-04T06:23:21.766Z,14.70
2018-09-04T06:25:50.898Z,14.79
2018-09-04T06:28:20.026Z,14.80
2018-09-04T06:30:49.169Z,14.79
2018-09-04T06:33:18.372Z,14.80
2018-09-04T06:35:48.564Z,14.74
2018-09-04T06:38:17.786Z,14.75
2018-09-04T06:40:46.912Z,14.79
2018-09-04T06:43:16.174Z,14.80
2018-09-04T06:45:45.346Z,14.89
2018-09-04T06:48:14.452Z,14.86
2018-09-04T06:50:43.751Z,14.80
2018-09-04T06:53:12.913Z,14.83
2018-09-04T06:55:42.134Z,14.85
2018-09-04T06:58:11.356Z,14.88
2018-09-04T07:00:40.532Z,14.80
2018-09-04T07:03:09.655Z,14.82
2018-09-04T07:05:38.831Z,14.84
2018-09-04T07:08:08.047Z,14.86
2018-09-04T07:10:37.175Z,14.91
2018-09-04T07:13:06.519Z,14.97
2018-09-04T07:15:35.823Z,14.93
2018-09-04T07:18:05.453Z,14.92
2018-09-04T07:20:34.725Z,14.95
2018-09-04T07:23:03.847Z,14.89
2018-09-04T07:25:32.989Z,14.89
2018-09-04T07:28:02.141Z,14.88
2018-09-04T07:30:31.274Z,14.89
2018-09-04T07:33:00.377Z,14.94
2018-09-04T07:35:29.497Z,14.93
2018-09-04T07:37:58.616Z,14.94
2018-09-04T07:40:27.728Z,14.94
2018-09-04T07:42:57.012Z,14.96
2018-09-04T07:45:26.135Z,14.97
2018-09-04T07:47:55.312Z,14.98
2018-09-04T07:50:24.409Z,14.96
2018-09-04T07:52:53.550Z,14.93
2018-09-04T07:55:22.659Z,14.94
2018-09-04T07:57:51.870Z,14.99
2018-09-04T08:00:20.986Z,14.98
2018-09-04T08:02:50.150Z,14.95
2018-09-04T08:05:19.278Z,14.97
2018-09-04T08:07:48.389Z,15.00
2018-09-04T08:10:17.787Z,15.00
2018-09-04T08:12:46.872Z,15.00
2018-09-04T08:15:16.014Z,14.99
2018-09-04T08:17:45.185Z,14.99
2018-09-04T08:20:14.327Z,15.00
2018-09-04T08:22:43.457Z,15.04
2018-09-04T08:25:12.562Z,15.01
2018-09-04T08:27:41.697Z,15.02
2018-09-04T08:30:10.797Z,14.97
2018-09-04T08:32:39.967Z,15.05
2018-09-04T08:35:09.160Z,15.05
2018-09-04T08:37:38.348Z,15.01
2018-09-04T08:40:07.488Z,15.02
2018-09-04T08:42:36.784Z,15.03
2018-09-04T08:45:05.893Z,15.05
2018-09-04T08:47:35.013Z,14.99
2018-09-04T08:50:04.229Z,15.01
2018-09-04T08:52:33.444Z,15.03
2018-09-04T08:55:02.660Z,15.00
2018-09-04T08:57:31.811Z,14.99
2018-09-04T09:00:01.033Z,15.06
2018-09-04T09:02:30.157Z,15.07
2018-09-04T09:04:59.315Z,15.10
2018-09-04T09:07:28.519Z,15.09
2018-09-04T09:09:57.680Z,15.09
2018-09-04T09:12:26.776Z,15.14
2018-09-04T09:14:55.860Z,15.16
2018-09-04T09:17:24.964Z,15.12
2018-09-04T09:19:54.504Z,15.16
2018-09-04T09:22:23.617Z,15.16
2018-09-04T09:24:52.788Z,15.21
2018-09-04T09:27:21.909Z,15.23
2018-09-04T09:29:51.073Z,15.28
2018-09-04T09:32:20.200Z,15.27
2018-09-04T09:34:49.395Z,15.24
2018-09-04T09:37:18.572Z,15.26
2018-09-04T09:39:47.779Z,15.27
2018-09-04T09:42:17.078Z,15.23
2018-09-04T09:44:46.347Z,15.34
2018-09-04T09:47:15.575Z,15.37
2018-09-04T09:49:44.742Z,15.40
2018-09-04T09:52:13.835Z,15.42
2018-09-04T09:54:43.012Z,15.45
2018-09-04T09:57:12.161Z,15.46
2018-09-04T09:59:41.722Z,15.52
2018-09-04T10:02:17.146Z,15.48
2018-09-04T10:04:46.299Z,15.54
2018-09-04T10:07:15.574Z,15.52
2018-09-04T10:09:44.732Z,15.46
2018-09-04T10:12:13.888Z,15.41
2018-09-04T10:14:43.012Z,15.41
2018-09-04T10:17:12.262Z,15.47
2018-09-04T10:19:41.439Z,15.53
2018-09-04T10:22:10.491Z,15.52
2018-09-04T10:24:39.754Z,15.51
2018-09-04T10:27:08.858Z,15.40
2018-09-04T10:29:38.047Z,15.50
2018-09-04T10:32:07.158Z,15.53
2018-09-04T10:34:36.339Z,15.45
2018-09-04T10:37:05.483Z,15.50
2018-09-04T10:39:39.980Z,15.49
2018-09-04T10:42:09.221Z,15.57
2018-09-04T10:44:38.368Z,15.56
2018-09-04T10:47:07.583Z,15.58
2018-09-04T10:49:36.759Z,15.61
2018-09-04T10:52:06.045Z,15.58
2018-09-04T10:54:35.188Z,15.57
2018-09-04T10:57:04.360Z,15.63
2018-09-04T10:59:33.473Z,15.67
2018-09-04T11:02:02.684Z,15.66
2018-09-04T11:04:31.857Z,15.75
2018-09-04T11:07:00.976Z,15.79
2018-09-04T11:09:30.168Z,15.78
2018-09-04T11:11:59.286Z,15.95
2018-09-04T11:14:28.433Z,15.99
2018-09-04T11:16:57.655Z,16.13
2018-09-04T11:19:26.915Z,16.25
2018-09-04T11:21:56.029Z,16.31
2018-09-04T11:24:25.246Z,16.16
2018-09-04T11:26:54.346Z,16.16
2018-09-04T11:29:23.499Z,16.18
2018-09-04T11:31:52.801Z,16.19
2018-09-04T11:34:21.917Z,16.12
2018-09-04T11:36:51.093Z,16.08
2018-09-04T11:39:20.395Z,16.17
2018-09-04T11:41:49.487Z,16.13
2018-09-04T11:44:18.658Z,16.12
2018-09-04T11:46:47.823Z,16.06
2018-09-04T11:49:16.982Z,16.06
2018-09-04T11:51:46.090Z,16.18
2018-09-04T11:54:15.273Z,16.15
2018-09-04T11:56:44.381Z,16.21
2018-09-04T11:59:13.492Z,16.27
2018-09-04T12:01:46.337Z,16.30
2018-09-04T12:04:15.543Z,16.33
2018-09-04T12:06:44.871Z,16.27
2018-09-04T12:09:14.229Z,16.27
2018-09-04T12:11:47.641Z,16.23
2018-09-04T12:14:16.762Z,16.30
2018-09-04T12:16:45.955Z,16.43
2018-09-04T12:19:15.111Z,16.48
2018-09-04T12:21:44.227Z,16.55
2018-09-04T12:24:13.395Z,16.50
2018-09-04T12:26:42.545Z,16.52
2018-09-04T12:29:11.719Z,16.54
2018-09-04T12:31:40.829Z,16.50
2018-09-04T12:34:09.956Z,16.47
2018-09-04T12:36:39.137Z,16.55
2018-09-04T12:39:08.200Z,16.55
2018-09-04T12:41:37.316Z,16.66
2018-09-04T12:44:06.495Z,16.67
2018-09-04T12:46:35.588Z,16.59
2018-09-04T12:49:04.910Z,16.60
2018-09-04T12:51:34.192Z,16.63
2018-09-04T12:54:03.320Z,16.75
2018-09-04T12:56:32.601Z,16.92
2018-09-04T12:59:01.915Z,17.04
2018-09-04T13:01:31.026Z,17.14
2018-09-04T13:04:00.152Z,17.14
2018-09-04T13:06:29.256Z,16.94
2018-09-04T13:08:58.449Z,16.90
2018-09-04T13:11:27.537Z,17.00
2018-09-04T13:13:56.762Z,17.04
2018-09-04T13:16:25.876Z,17.50
2018-09-04T13:18:54.978Z,18.66
2018-09-04T13:21:24.106Z,20.76
2018-09-04T13:23:53.212Z,21.05
2018-09-04T13:26:22.352Z,20.10
2018-09-04T13:28:51.540Z,20.72
2018-09-04T13:31:20.658Z,21.31
2018-09-04T13:33:49.839Z,19.80
2018-09-04T13:36:18.963Z,19.77
2018-09-04T13:38:48.100Z,19.96
2018-09-04T13:41:17.237Z,19.83
2018-09-04T13:43:46.377Z,19.49
2018-09-04T13:46:15.542Z,19.57
2018-09-04T13:48:44.784Z,20.15
2018-09-04T13:51:14.229Z,20.30
2018-09-04T13:53:43.411Z,20.15
2018-09-04T13:56:12.519Z,20.01
2018-09-04T13:58:41.631Z,19.43
2018-09-04T14:01:10.928Z,20.08
2018-09-04T14:03:40.009Z,21.30
2018-09-04T14:06:09.125Z,22.34
2018-09-04T14:08:38.213Z,21.52
2018-09-04T14:11:07.434Z,21.61
2018-09-04T14:13:37.617Z,21.08
2018-09-04T14:16:08.863Z,20.84
2018-09-04T14:18:38.213Z,21.88
2018-09-04T14:21:07.407Z,21.40
2018-09-04T14:23:36.765Z,22.64
2018-09-04T14:26:05.997Z,22.26
2018-09-04T14:28:42.149Z,24.02
2018-09-04T14:31:04.664Z,22.63
2018-09-04T14:33:34.116Z,24.09
2018-09-04T14:36:03.235Z,23.97
2018-09-04T14:38:32.370Z,24.23
2018-09-04T14:41:01.596Z,25.20
2018-09-04T14:43:30.735Z,23.37
2018-09-04T14:45:59.842Z,21.91
2018-09-04T14:48:29.068Z,21.83
2018-09-04T14:50:58.191Z,23.74
2018-09-04T14:53:27.336Z,24.06
2018-09-04T14:55:56.832Z,22.99
2018-09-04T14:58:25.948Z,23.25
2018-09-04T15:00:55.140Z,23.18
2018-09-04T15:03:24.552Z,22.79
2018-09-04T15:05:53.640Z,23.29
2018-09-04T15:08:22.751Z,21.81
2018-09-04T15:10:52.224Z,23.14
2018-09-04T15:13:21.313Z,24.15
2018-09-04T15:15:50.428Z,24.35
2018-09-04T15:18:19.550Z,24.63
2018-09-04T15:20:48.636Z,25.00
2018-09-04T15:23:17.728Z,25.27
2018-09-04T15:25:46.930Z,25.01
2018-09-04T15:28:16.402Z,25.07
2018-09-04T15:30:45.528Z,24.26
2018-09-04T15:33:14.723Z,24.27
2018-09-04T15:35:44.000Z,24.98
2018-09-04T15:38:13.059Z,24.75
2018-09-04T15:40:42.248Z,22.44
2018-09-04T15:43:11.429Z,22.01
2018-09-04T15:45:40.543Z,22.84
2018-09-04T15:48:09.665Z,23.46
2018-09-04T15:50:38.790Z,24.33
2018-09-04T15:53:07.972Z,24.43
2018-09-04T15:55:37.086Z,25.23
2018-09-04T15:58:06.283Z,24.51
2018-09-04T16:00:35.561Z,23.78
2018-09-04T16:03:04.802Z,23.34
2018-09-04T16:05:33.922Z,23.40
2018-09-04T16:08:04.087Z,22.32
2018-09-04T16:10:33.308Z,21.80
2018-09-04T16:13:02.483Z,21.48
2018-09-04T16:15:31.703Z,21.41
2018-09-04T16:18:00.872Z,21.29
2018-09-04T16:20:29.984Z,21.74
2018-09-04T16:22:59.100Z,22.60
2018-09-04T16:25:28.288Z,23.07
2018-09-04T16:27:57.456Z,22.97
2018-09-04T16:30:26.570Z,23.13
2018-09-04T16:32:55.950Z,22.78
2018-09-04T16:35:25.102Z,22.10
2018-09-04T16:37:54.248Z,21.70
2018-09-04T16:40:23.438Z,21.92
2018-09-04T16:42:52.551Z,21.64
2018-09-04T16:45:21.769Z,21.32
2018-09-04T16:47:50.879Z,21.35
2018-09-04T16:50:20.086Z,21.24
2018-09-04T16:52:49.225Z,21.04
2018-09-04T16:55:18.344Z,21.02
2018-09-04T16:57:47.529Z,20.74
2018-09-04T17:00:16.713Z,20.65
2018-09-04T17:02:45.852Z,20.62
2018-09-04T17:05:15.112Z,20.53
2018-09-04T17:07:44.461Z,20.42
2018-09-04T17:10:13.714Z,20.46
2018-09-04T17:12:42.830Z,20.41
2018-09-04T17:15:12.257Z,20.33
2018-09-04T17:17:41.430Z,20.21
2018-09-04T17:20:10.517Z,20.04
2018-09-04T17:22:39.729Z,19.88
2018-09-04T17:25:08.925Z,19.88
2018-09-04T17:27:38.141Z,19.83
2018-09-04T17:30:07.312Z,19.70
2018-09-04T17:32:36.534Z,19.65
2018-09-04T17:35:05.933Z,19.53
2018-09-04T17:37:35.123Z,19.48
2018-09-04T17:40:04.381Z,19.25
2018-09-04T17:42:33.508Z,19.24
2018-09-04T17:45:02.722Z,19.23
2018-09-04T17:47:32.890Z,19.24
2018-09-04T17:50:02.016Z,19.18
2018-09-04T17:52:31.224Z,19.04
2018-09-04T17:55:00.361Z,18.94
2018-09-04T17:57:29.590Z,18.81
2018-09-04T17:59:59.017Z,18.64
2018-09-04T18:02:28.247Z,18.53
2018-09-04T18:04:57.324Z,18.45
2018-09-04T18:07:26.448Z,18.43
2018-09-04T18:09:55.819Z,18.38
2018-09-04T18:12:24.992Z,18.44
2018-09-04T18:14:54.203Z,18.45
2018-09-04T18:17:23.320Z,18.42
2018-09-04T18:19:52.749Z,18.37
2018-09-04T18:22:21.893Z,18.35
2018-09-04T18:24:51.033Z,18.38
2018-09-04T18:27:20.183Z,18.28
2018-09-04T18:29:49.287Z,18.16
2018-09-04T18:32:18.505Z,18.07
2018-09-04T18:34:47.669Z,17.98
2018-09-04T18:37:16.853Z,17.99
2018-09-04T18:39:45.956Z,17.94
2018-09-04T18:42:15.147Z,17.94
2018-09-04T18:44:44.247Z,17.92
2018-09-04T18:47:13.408Z,17.94
2018-09-04T18:49:42.637Z,17.95
2018-09-04T18:52:11.751Z,17.88
2018-09-04T18:54:40.977Z,17.81
2018-09-04T18:57:10.083Z,17.74
2018-09-04T18:59:39.387Z,17.71
2018-09-04T19:02:08.563Z,17.63
2018-09-04T19:04:37.736Z,17.66
2018-09-04T19:07:06.939Z,17.71
2018-09-04T19:09:36.219Z,17.64
2018-09-04T19:12:05.455Z,17.59
2018-09-04T19:14:34.568Z,17.52
2018-09-04T19:17:03.815Z,17.47
2018-09-04T19:19:32.920Z,17.49
2018-09-04T19:22:02.144Z,17.44
2018-09-04T19:24:31.280Z,17.36
2018-09-04T19:27:00.396Z,17.27
2018-09-04T19:29:29.507Z,17.19
2018-09-04T19:31:58.736Z,17.13
2018-09-04T19:34:27.871Z,17.12
2018-09-04T19:36:56.969Z,17.17
2018-09-04T19:39:26.122Z,17.05
2018-09-04T19:41:55.296Z,17.04
2018-09-04T19:44:24.492Z,16.99
2018-09-04T19:46:53.703Z,16.99
2018-09-04T19:49:22.877Z,17.07
2018-09-04T19:51:51.999Z,17.03
2018-09-04T19:54:21.106Z,16.96
2018-09-04T19:56:50.201Z,16.87
2018-09-04T19:59:19.304Z,16.85
2018-09-04T20:01:48.713Z,16.85
2018-09-04T20:04:17.805Z,16.79
2018-09-04T20:06:46.987Z,16.84
2018-09-04T20:09:16.117Z,16.87
2018-09-04T20:11:45.229Z,16.79
2018-09-04T20:14:14.455Z,16.69
2018-09-04T20:16:44.101Z,16.62
2018-09-04T20:19:13.271Z,16.59
2018-09-04T20:21:42.483Z,16.55
2018-09-04T20:24:11.856Z,16.50
2018-09-04T20:26:40.961Z,16.47
2018-09-04T20:29:10.186Z,16.44
2018-09-04T20:31:39.608Z,16.51
2018-09-04T20:34:08.700Z,16.51
2018-09-04T20:36:37.944Z,16.53
2018-09-04T20:39:07.250Z,16.52
2018-09-04T20:41:36.402Z,16.50
2018-09-04T20:44:05.766Z,16.52
2018-09-04T20:46:35.345Z,16.51
2018-09-04T20:49:04.879Z,16.51
2018-09-04T20:51:34.206Z,16.52
2018-09-04T20:54:03.336Z,16.56
2018-09-04T20:56:32.421Z,16.59
2018-09-04T20:59:12.788Z,16.55
2018-09-04T21:01:53.352Z,16.53
2018-09-04T21:04:33.901Z,16.49
2018-09-04T21:07:01.996Z,16.42
2018-09-04T21:09:39.945Z,16.43
2018-09-04T21:12:09.602Z,16.41
2018-09-04T21:14:38.803Z,16.45
2018-09-04T21:17:07.977Z,16.48
2018-09-04T21:19:37.199Z,16.54
2018-09-04T21:22:06.329Z,16.51
2018-09-04T21:24:35.713Z,16.51
2018-09-04T21:27:05.011Z,16.54
2018-09-04T21:29:34.305Z,16.48
2018-09-04T21:32:03.710Z,16.44
2018-09-04T21:34:33.040Z,16.48
2018-09-04T21:37:38.130Z,16.47
2018-09-04T21:40:07.508Z,16.39
2018-09-04T21:42:36.645Z,16.37
2018-09-04T21:45:05.802Z,16.36
2018-09-04T21:47:35.241Z,16.39
2018-09-04T21:50:04.387Z,16.44
2018-09-04T21:52:33.516Z,16.49
2018-09-04T21:55:03.184Z,16.47
2018-09-04T21:57:32.485Z,16.52
2018-09-04T22:00:01.792Z,16.53
2018-09-04T22:02:30.924Z,16.52
2018-09-04T22:05:00.194Z,16.57
2018-09-04T22:07:29.637Z,16.46
2018-09-04T22:09:58.988Z,16.44
2018-09-04T22:12:28.332Z,16.45
2018-09-04T22:14:57.740Z,16.40
2018-09-04T22:17:26.870Z,16.39
2018-09-04T22:19:56.100Z,16.41
2018-09-04T22:22:25.292Z,16.46
2018-09-04T22:24:54.532Z,16.49
2018-09-04T22:27:23.668Z,16.46
2018-09-04T22:29:52.872Z,16.44
2018-09-04T22:32:21.984Z,16.35
2018-09-04T22:34:51.108Z,16.34
2018-09-04T22:37:20.364Z,16.31
2018-09-04T22:39:49.588Z,16.27
2018-09-04T22:42:18.685Z,16.30
2018-09-04T22:44:47.862Z,16.27
2018-09-04T22:47:17.045Z,16.22
2018-09-04T22:49:51.525Z,16.23
2018-09-04T22:52:24.921Z,16.23
2018-09-04T22:54:57.180Z,16.21
2018-09-04T22:57:26.296Z,16.21
2018-09-04T22:59:55.483Z,16.17
2018-09-04T23:02:24.635Z,16.21
2018-09-04T23:04:53.809Z,16.21
2018-09-04T23:07:22.937Z,16.19
2018-09-04T23:09:52.133Z,16.17
2018-09-04T23:12:21.257Z,16.15
2018-09-04T23:14:50.404Z,16.15
2018-09-04T23:17:19.657Z,16.16
2018-09-04T23:19:49.240Z,16.21
2018-09-04T23:22:18.365Z,16.17
2018-09-04T23:24:47.709Z,16.15
2018-09-04T23:27:16.823Z,16.16
2018-09-04T23:29:45.942Z,16.12
2018-09-04T23:32:15.205Z,16.08
2018-09-04T23:34:44.464Z,16.12
2018-09-04T23:37:13.703Z,16.10
2018-09-04T23:39:42.904Z,16.10
2018-09-04T23:42:12.084Z,16.09
2018-09-04T23:44:41.284Z,16.07
2018-09-04T23:47:10.545Z,16.12
2018-09-04T23:49:39.667Z,16.08
2018-09-04T23:52:08.921Z,16.06
2018-09-04T23:54:38.128Z,16.08
2018-09-04T23:57:07.284Z,16.07
2018-09-04T23:59:36.480Z,16.07
